Terminal Aerodrome Forecast
Issued by NWS

Home | Current Version | Previous Version | Text Only | Print | Product List | Glossary On
Versions: 1 2 3 4 5 6 7 8 9 10 11 12 13 14 15 16 17 18 19 20 21 22 23
000
FTUS42 KKEY 011139
TAFMTH
TAF
KMTH 011139Z 0112/0212 07011G18KT P6SM VCSH FEW015 FEW030
     FM011400 10010G17KT P6SM FEW020
     FM020200 08010KT P6SM FEW015=

USA.gov is the U.S. government's official web portal to all federal, state and local government web resources and services.